createdAt,value
2018-04-30T00:00:52.580Z,15.00
2018-04-30T00:03:20.231Z,15.00
2018-04-30T00:05:47.830Z,15.00
2018-04-30T00:08:16.227Z,15.00
2018-04-30T00:10:43.819Z,15.00
2018-04-30T00:13:11.443Z,15.00
2018-04-30T00:15:39.074Z,15.00
2018-04-30T00:18:06.658Z,15.00
2018-04-30T00:20:34.283Z,15.00
2018-04-30T00:23:01.887Z,14.90
2018-04-30T00:25:29.527Z,15.00
2018-04-30T00:27:57.883Z,14.90
2018-04-30T00:30:25.470Z,14.90
2018-04-30T00:32:53.862Z,14.90
2018-04-30T00:35:22.214Z,14.90
2018-04-30T00:37:49.839Z,14.90
2018-04-30T00:40:17.430Z,14.90
2018-04-30T00:42:45.051Z,14.90
2018-04-30T00:45:12.655Z,14.90
2018-04-30T00:47:40.280Z,14.80
2018-04-30T00:50:07.869Z,14.90
2018-04-30T00:52:35.490Z,14.90
2018-04-30T00:55:03.103Z,14.80
2018-04-30T00:57:30.726Z,14.80
2018-04-30T00:59:58.310Z,14.80
2018-04-30T01:02:25.935Z,14.80
2018-04-30T01:04:53.571Z,14.80
2018-04-30T01:07:21.992Z,14.70
2018-04-30T01:09:49.635Z,14.70
2018-04-30T01:12:19.230Z,14.70
2018-04-30T01:14:46.865Z,14.70
2018-04-30T01:17:14.508Z,14.70
2018-04-30T01:19:42.159Z,14.60
2018-04-30T01:22:09.752Z,14.60
2018-04-30T01:24:37.338Z,14.60
2018-04-30T01:27:05.812Z,14.60
2018-04-30T01:29:33.371Z,14.50
2018-04-30T01:32:01.770Z,14.50
2018-04-30T01:34:29.363Z,14.50
2018-04-30T01:36:56.954Z,14.50
2018-04-30T01:39:24.578Z,14.50
2018-04-30T01:41:52.171Z,14.50
2018-04-30T01:44:19.810Z,14.40
2018-04-30T01:46:47.444Z,14.50
2018-04-30T01:49:15.078Z,14.60
2018-04-30T01:51:43.454Z,14.60
2018-04-30T01:54:11.871Z,14.60
2018-04-30T01:56:39.483Z,14.60
2018-04-30T01:59:07.106Z,14.70
2018-04-30T02:01:34.698Z,14.70
2018-04-30T02:04:02.318Z,14.70
2018-04-30T02:06:29.930Z,14.70
2018-04-30T02:08:57.578Z,14.70
2018-04-30T02:11:25.203Z,14.80
2018-04-30T02:13:52.844Z,14.80
2018-04-30T02:16:20.475Z,14.90
2018-04-30T02:18:48.955Z,14.80
2018-04-30T02:21:16.581Z,14.80
2018-04-30T02:23:44.173Z,14.80
2018-04-30T02:26:11.813Z,14.80
2018-04-30T02:28:39.419Z,14.70
2018-04-30T02:31:07.838Z,14.60
2018-04-30T02:33:35.557Z,14.60
2018-04-30T02:36:03.895Z,14.50
2018-04-30T02:38:31.490Z,14.50
2018-04-30T02:40:59.078Z,14.50
2018-04-30T02:43:27.477Z,14.40
2018-04-30T02:45:55.067Z,14.40
2018-04-30T02:48:22.658Z,14.40
2018-04-30T02:50:51.079Z,14.30
2018-04-30T02:53:18.714Z,14.30
2018-04-30T02:55:47.089Z,14.30
2018-04-30T02:58:15.494Z,14.30
2018-04-30T03:00:43.122Z,14.20
2018-04-30T03:03:10.720Z,14.20
2018-04-30T03:05:38.347Z,14.20
2018-04-30T03:08:05.939Z,14.20
2018-04-30T03:10:33.558Z,14.10
2018-04-30T03:13:01.154Z,14.10
2018-04-30T03:15:28.803Z,14.00
2018-04-30T03:17:57.178Z,14.10
2018-04-30T03:20:25.568Z,14.00
2018-04-30T03:22:53.970Z,13.90
2018-04-30T03:25:21.622Z,13.90
2018-04-30T03:27:49.250Z,13.90
2018-04-30T03:30:17.056Z,13.90
2018-04-30T03:32:45.477Z,13.80
2018-04-30T03:35:13.839Z,13.80
2018-04-30T03:37:41.466Z,13.70
2018-04-30T03:40:09.071Z,13.70
2018-04-30T03:42:37.423Z,13.70
2018-04-30T03:45:05.096Z,13.60
2018-04-30T03:47:32.693Z,13.60
2018-04-30T03:50:00.315Z,13.60
2018-04-30T03:52:27.910Z,13.60
2018-04-30T03:54:55.561Z,13.60
2018-04-30T03:57:23.142Z,13.50
2018-04-30T03:59:50.726Z,13.50
2018-04-30T04:02:30.125Z,13.50
2018-04-30T04:05:09.607Z,13.40
2018-04-30T04:07:38.003Z,13.20
2018-04-30T04:10:06.367Z,13.10
2018-04-30T04:12:34.722Z,13.00
2018-04-30T04:15:02.350Z,13.00
2018-04-30T04:17:29.983Z,12.90
2018-04-30T04:19:58.339Z,12.90
2018-04-30T04:22:25.991Z,12.90
2018-04-30T04:24:53.575Z,12.80
2018-04-30T04:27:21.931Z,12.80
2018-04-30T04:29:49.555Z,12.80
2018-04-30T04:32:17.147Z,12.80
2018-04-30T04:34:44.779Z,12.70
2018-04-30T04:37:12.362Z,12.80
2018-04-30T04:39:39.987Z,12.70
2018-04-30T04:42:07.579Z,12.70
2018-04-30T04:44:35.190Z,12.60
2018-04-30T04:47:03.604Z,12.60
2018-04-30T04:49:31.202Z,12.50
2018-04-30T04:51:58.840Z,12.60
2018-04-30T04:54:26.470Z,12.50
2018-04-30T04:56:54.058Z,12.50
2018-04-30T04:59:21.691Z,12.50
2018-04-30T05:01:49.327Z,12.40
2018-04-30T05:04:17.736Z,12.40
2018-04-30T05:06:45.331Z,12.40
2018-04-30T05:09:12.954Z,12.40
2018-04-30T05:11:40.576Z,12.40
2018-04-30T05:14:08.166Z,12.40
2018-04-30T05:16:36.616Z,12.40
2018-04-30T05:19:04.207Z,12.30
2018-04-30T05:21:32.602Z,12.40
2018-04-30T05:24:00.266Z,12.40
2018-04-30T05:26:27.914Z,12.40
2018-04-30T05:28:56.310Z,12.40
2018-04-30T05:31:23.910Z,12.40
2018-04-30T05:33:51.516Z,12.40
2018-04-30T05:36:19.158Z,12.50
2018-04-30T05:38:47.007Z,12.50
2018-04-30T05:41:14.607Z,12.50
2018-04-30T05:43:42.999Z,12.50
2018-04-30T05:46:10.587Z,12.50
2018-04-30T05:48:38.221Z,12.50
2018-04-30T05:51:06.579Z,12.50
2018-04-30T05:53:34.978Z,12.50
2018-04-30T05:56:02.589Z,12.50
2018-04-30T05:58:30.211Z,12.50
2018-04-30T06:00:57.868Z,12.50
2018-04-30T06:03:25.463Z,12.50
2018-04-30T06:05:53.110Z,12.50
2018-04-30T06:08:20.698Z,12.50
2018-04-30T06:10:48.290Z,12.50
2018-04-30T06:13:15.915Z,12.50
2018-04-30T06:15:43.503Z,12.50
2018-04-30T06:18:11.137Z,12.50
2018-04-30T06:20:38.803Z,12.50
2018-04-30T06:23:06.395Z,12.50
2018-04-30T06:25:33.992Z,12.50
2018-04-30T06:28:01.663Z,12.50
2018-04-30T06:30:29.261Z,12.50
2018-04-30T06:32:56.854Z,12.60
2018-04-30T06:35:24.507Z,12.50
2018-04-30T06:37:52.110Z,12.60
2018-04-30T06:40:19.710Z,12.50
2018-04-30T06:42:47.334Z,12.50
2018-04-30T06:45:14.923Z,12.50
2018-04-30T06:47:42.567Z,12.40
2018-04-30T06:50:10.164Z,12.40
2018-04-30T06:52:37.762Z,12.40
2018-04-30T06:55:06.163Z,12.40
2018-04-30T06:57:33.794Z,12.40
2018-04-30T07:00:02.200Z,12.30
2018-04-30T07:02:29.795Z,12.30
2018-04-30T07:04:57.419Z,12.30
2018-04-30T07:07:25.046Z,12.40
2018-04-30T07:09:52.682Z,12.30
2018-04-30T07:12:20.310Z,12.30
2018-04-30T07:14:47.940Z,12.30
2018-04-30T07:17:16.311Z,12.30
2018-04-30T07:19:43.943Z,12.30
2018-04-30T07:22:11.531Z,12.30
2018-04-30T07:24:39.151Z,12.40
2018-04-30T07:27:06.740Z,12.40
2018-04-30T07:29:34.404Z,12.40
2018-04-30T07:32:02.016Z,12.50
2018-04-30T07:34:29.603Z,12.50
2018-04-30T07:36:57.222Z,12.50
2018-04-30T07:39:25.590Z,12.60
2018-04-30T07:41:53.983Z,12.70
2018-04-30T07:44:22.365Z,12.70
2018-04-30T07:46:50.758Z,12.70
2018-04-30T07:49:18.442Z,12.60
2018-04-30T07:51:46.039Z,12.70
2018-04-30T07:54:13.643Z,12.70
2018-04-30T07:56:41.246Z,12.70
2018-04-30T07:59:08.878Z,12.80
2018-04-30T08:01:36.491Z,12.80
2018-04-30T08:04:04.095Z,12.90
2018-04-30T08:06:31.725Z,12.90
2018-04-30T08:08:59.351Z,13.00
2018-04-30T08:11:26.944Z,13.10
2018-04-30T08:13:54.567Z,13.10
2018-04-30T08:16:27.147Z,13.20
2018-04-30T08:18:54.783Z,13.20
2018-04-30T08:21:22.382Z,13.20
2018-04-30T08:23:50.017Z,13.20
2018-04-30T08:26:17.625Z,13.20
2018-04-30T08:28:45.999Z,13.30
2018-04-30T08:31:14.390Z,13.30
2018-04-30T08:33:41.988Z,13.20
2018-04-30T08:36:09.634Z,13.30
2018-04-30T08:38:37.236Z,13.30
2018-04-30T08:41:04.871Z,13.30
2018-04-30T08:43:32.507Z,13.40
2018-04-30T08:46:00.100Z,13.40
2018-04-30T08:48:28.512Z,13.40
2018-04-30T08:50:56.103Z,13.40
2018-04-30T08:53:23.774Z,13.50
2018-04-30T08:55:51.423Z,13.50
2018-04-30T08:58:19.023Z,13.50
2018-04-30T09:00:47.533Z,13.60
2018-04-30T09:03:15.142Z,13.60
2018-04-30T09:05:42.768Z,13.60
2018-04-30T09:08:10.396Z,13.70
2018-04-30T09:10:38.835Z,13.80
2018-04-30T09:13:06.436Z,13.80
2018-04-30T09:15:35.087Z,13.90
2018-04-30T09:18:02.855Z,13.90
2018-04-30T09:20:30.808Z,13.90
2018-04-30T09:22:58.737Z,13.90
2018-04-30T09:25:26.447Z,14.00
2018-04-30T09:27:54.128Z,14.00
2018-04-30T09:30:21.755Z,14.00
2018-04-30T09:32:49.356Z,14.00
2018-04-30T09:35:17.109Z,14.10
2018-04-30T09:37:44.842Z,14.10
2018-04-30T09:40:12.459Z,14.10
2018-04-30T09:42:40.998Z,14.10
2018-04-30T09:45:08.639Z,14.10
2018-04-30T09:47:36.321Z,14.20
2018-04-30T09:50:03.994Z,14.20
2018-04-30T09:52:31.613Z,14.20
2018-04-30T09:54:59.251Z,14.30
2018-04-30T09:57:26.847Z,14.30
2018-04-30T09:59:54.730Z,14.40
2018-04-30T10:02:22.342Z,14.40
2018-04-30T10:04:49.995Z,14.40
2018-04-30T10:07:17.741Z,14.40
2018-04-30T10:09:45.328Z,14.40
2018-04-30T10:12:12.974Z,14.40
2018-04-30T10:14:41.376Z,14.50
2018-04-30T10:17:09.048Z,14.50
2018-04-30T10:19:36.709Z,14.50
2018-04-30T10:22:04.347Z,14.50
2018-04-30T10:24:31.939Z,14.50
2018-04-30T10:26:59.583Z,14.50
2018-04-30T10:29:27.170Z,14.50
2018-04-30T10:31:54.785Z,14.60
2018-04-30T10:34:22.415Z,14.60
2018-04-30T10:36:50.005Z,14.60
2018-04-30T10:39:17.688Z,14.60
2018-04-30T10:41:46.062Z,14.70
2018-04-30T10:44:14.422Z,14.70
2018-04-30T10:46:42.051Z,14.60
2018-04-30T10:49:09.647Z,14.70
2018-04-30T10:51:37.302Z,14.70
2018-04-30T10:54:05.104Z,14.70
2018-04-30T10:56:32.779Z,14.70
2018-04-30T10:59:00.418Z,14.70
2018-04-30T11:01:29.035Z,14.70
2018-04-30T11:03:57.443Z,14.80
2018-04-30T11:06:25.844Z,14.80
2018-04-30T11:08:54.213Z,14.80
2018-04-30T11:11:22.612Z,14.80
2018-04-30T11:13:50.262Z,14.90
2018-04-30T11:16:18.626Z,15.00
2018-04-30T11:18:46.270Z,14.90
2018-04-30T11:21:13.996Z,15.00
2018-04-30T11:23:41.639Z,14.90
2018-04-30T11:26:09.232Z,14.90
2018-04-30T11:28:36.863Z,15.00
2018-04-30T11:31:04.471Z,14.90
2018-04-30T11:33:32.113Z,14.90
2018-04-30T11:35:59.718Z,15.00
2018-04-30T11:38:28.166Z,14.90
2018-04-30T11:40:55.811Z,14.90
2018-04-30T11:43:23.424Z,14.90
2018-04-30T11:45:51.830Z,14.90
2018-04-30T11:48:19.440Z,14.90
2018-04-30T11:50:47.111Z,14.90
2018-04-30T11:53:14.724Z,15.00
2018-04-30T11:55:42.442Z,15.00
2018-04-30T11:58:10.071Z,15.00
2018-04-30T12:00:37.741Z,15.00
2018-04-30T12:03:05.421Z,15.00
2018-04-30T12:05:33.039Z,15.00
2018-04-30T12:08:00.910Z,15.00
2018-04-30T12:10:28.547Z,15.00
2018-04-30T12:12:56.957Z,15.10
2018-04-30T12:15:24.676Z,15.00
2018-04-30T12:17:53.048Z,15.10
2018-04-30T12:20:20.720Z,15.00
2018-04-30T12:22:48.332Z,15.10
2018-04-30T12:25:15.975Z,15.10
2018-04-30T12:27:44.399Z,15.10
2018-04-30T12:30:12.106Z,15.10
2018-04-30T12:32:40.080Z,15.20
2018-04-30T12:35:07.755Z,15.20
2018-04-30T12:37:35.360Z,15.30
2018-04-30T12:40:03.088Z,15.20
2018-04-30T12:42:30.787Z,15.20
2018-04-30T12:44:58.474Z,15.20
2018-04-30T12:47:26.095Z,15.30
2018-04-30T12:49:53.899Z,15.30
2018-04-30T12:52:21.615Z,15.30
2018-04-30T12:54:49.654Z,15.30
2018-04-30T12:57:17.542Z,15.30
2018-04-30T12:59:45.244Z,15.30
2018-04-30T13:02:12.867Z,15.30
2018-04-30T13:04:40.506Z,15.30
2018-04-30T13:07:08.951Z,15.40
2018-04-30T13:09:36.569Z,15.40
2018-04-30T13:12:04.188Z,15.50
2018-04-30T13:14:31.855Z,15.40
2018-04-30T13:16:59.654Z,15.40
2018-04-30T13:19:27.513Z,15.40
2018-04-30T13:21:55.145Z,15.40
2018-04-30T13:24:22.963Z,15.50
2018-04-30T13:26:50.616Z,15.50
2018-04-30T13:29:19.279Z,15.50
2018-04-30T13:31:47.721Z,15.50
2018-04-30T13:34:15.696Z,15.50
2018-04-30T13:36:43.713Z,15.60
2018-04-30T13:39:11.414Z,15.50
2018-04-30T13:41:39.113Z,15.50
2018-04-30T13:44:06.859Z,15.50
2018-04-30T13:46:34.560Z,15.60
2018-04-30T13:49:02.179Z,15.60
2018-04-30T13:51:30.592Z,15.60
2018-04-30T13:53:59.377Z,15.60
2018-04-30T13:56:27.205Z,15.60
2018-04-30T13:58:55.233Z,15.60
2018-04-30T14:01:23.063Z,15.70
2018-04-30T14:03:51.117Z,15.70
2018-04-30T14:06:19.331Z,15.80
2018-04-30T14:08:48.151Z,15.70
2018-04-30T14:11:16.908Z,15.70
2018-04-30T14:13:44.548Z,15.70
2018-04-30T14:16:12.251Z,15.70
2018-04-30T14:18:40.699Z,15.70
2018-04-30T14:21:08.347Z,15.70
2018-04-30T14:23:35.938Z,15.70
2018-04-30T14:26:03.615Z,15.60
2018-04-30T14:28:31.531Z,15.70
2018-04-30T14:30:59.348Z,15.70
2018-04-30T14:33:27.774Z,15.70
2018-04-30T14:35:55.411Z,15.60
2018-04-30T14:38:23.829Z,15.70
2018-04-30T14:40:51.512Z,15.70
2018-04-30T14:43:19.283Z,15.70
2018-04-30T14:45:46.951Z,15.70
2018-04-30T14:48:14.968Z,15.70
2018-04-30T14:50:42.877Z,15.70
2018-04-30T14:53:10.691Z,15.70
2018-04-30T14:55:38.430Z,15.70
2018-04-30T14:58:06.958Z,15.70
2018-04-30T15:00:34.619Z,15.70
2018-04-30T15:03:02.300Z,15.70
2018-04-30T15:05:30.315Z,15.70
2018-04-30T15:07:59.230Z,15.70
2018-04-30T15:10:26.901Z,15.70
2018-04-30T15:12:54.536Z,15.70
2018-04-30T15:15:22.919Z,15.70
2018-04-30T15:17:50.720Z,15.70
2018-04-30T15:20:18.352Z,15.70
2018-04-30T15:22:46.054Z,15.70
2018-04-30T15:25:13.678Z,15.70
2018-04-30T15:27:42.043Z,15.70
2018-04-30T15:30:09.667Z,15.60
2018-04-30T15:32:37.254Z,15.70
2018-04-30T15:35:04.934Z,15.70
2018-04-30T15:37:32.581Z,15.60
2018-04-30T15:40:00.237Z,15.70
2018-04-30T15:42:27.889Z,15.70
2018-04-30T15:44:55.524Z,15.70
2018-04-30T15:47:23.132Z,15.70
2018-04-30T15:49:50.767Z,15.70
2018-04-30T15:52:18.388Z,15.70
2018-04-30T15:54:46.788Z,15.70
2018-04-30T15:57:14.611Z,15.60
2018-04-30T15:59:43.043Z,15.60
2018-04-30T16:02:10.678Z,15.60
2018-04-30T16:04:38.277Z,15.60
2018-04-30T16:07:05.916Z,15.60
2018-04-30T16:09:33.855Z,15.60
2018-04-30T16:12:01.558Z,15.60
2018-04-30T16:14:29.376Z,15.60
2018-04-30T16:16:57.747Z,15.60
2018-04-30T16:19:25.375Z,15.60
2018-04-30T16:21:53.021Z,15.60
2018-04-30T16:24:20.660Z,15.60
2018-04-30T16:26:49.043Z,15.60
2018-04-30T16:29:16.699Z,15.50
2018-04-30T16:31:44.314Z,15.50
2018-04-30T16:34:11.963Z,15.50
2018-04-30T16:36:39.578Z,15.50
2018-04-30T16:39:07.214Z,15.50
2018-04-30T16:41:34.802Z,15.60
2018-04-30T16:44:03.183Z,15.60
2018-04-30T16:46:31.570Z,15.50
2018-04-30T16:48:59.930Z,15.50
2018-04-30T16:51:28.331Z,15.50
2018-04-30T16:53:56.692Z,15.50
2018-04-30T16:56:24.327Z,15.50
2018-04-30T16:58:51.927Z,15.50
2018-04-30T17:01:20.342Z,15.50
2018-04-30T17:03:48.073Z,15.50
2018-04-30T17:06:15.607Z,15.40
2018-04-30T17:08:43.250Z,15.50
2018-04-30T17:11:10.839Z,15.40
2018-04-30T17:13:38.444Z,15.40
2018-04-30T17:16:06.098Z,15.30
2018-04-30T17:18:33.774Z,15.30
2018-04-30T17:21:01.395Z,15.30
2018-04-30T17:23:29.036Z,15.20
2018-04-30T17:25:56.679Z,15.20
2018-04-30T17:28:24.331Z,15.20
2018-04-30T17:30:52.024Z,15.10
2018-04-30T17:33:19.652Z,15.10
2018-04-30T17:35:47.244Z,15.10
2018-04-30T17:38:14.874Z,15.10
2018-04-30T17:40:42.550Z,15.10
2018-04-30T17:43:10.265Z,15.00
2018-04-30T17:45:37.887Z,14.90
2018-04-30T17:48:05.627Z,14.90
2018-04-30T17:50:33.267Z,15.00
2018-04-30T17:53:00.872Z,14.90
2018-04-30T17:55:28.464Z,14.90
2018-04-30T17:57:56.867Z,14.80
2018-04-30T18:00:26.590Z,14.80
2018-04-30T18:02:54.230Z,14.80
2018-04-30T18:05:21.827Z,14.70
2018-04-30T18:07:49.496Z,14.70
2018-04-30T18:10:17.948Z,14.60
2018-04-30T18:12:45.598Z,14.60
2018-04-30T18:15:13.250Z,14.50
2018-04-30T18:17:40.900Z,14.50
2018-04-30T18:20:08.545Z,14.50
2018-04-30T18:22:37.748Z,14.50
2018-04-30T18:25:05.424Z,14.50
2018-04-30T18:27:33.046Z,14.40
2018-04-30T18:30:01.463Z,14.40
2018-04-30T18:32:29.104Z,14.30
2018-04-30T18:34:57.677Z,14.30
2018-04-30T18:37:25.353Z,14.30
2018-04-30T18:39:53.222Z,14.30
2018-04-30T18:42:20.835Z,14.20
2018-04-30T18:44:51.074Z,14.20
2018-04-30T18:47:18.688Z,14.10
2018-04-30T18:49:46.350Z,14.20
2018-04-30T18:52:13.995Z,14.20
2018-04-30T18:54:41.595Z,14.20
2018-04-30T18:57:09.226Z,14.20
2018-04-30T18:59:36.914Z,14.10
2018-04-30T19:02:04.609Z,14.10
2018-04-30T19:04:32.210Z,14.00
2018-04-30T19:06:59.819Z,14.00
2018-04-30T19:09:27.477Z,14.00
2018-04-30T19:11:55.172Z,14.00
2018-04-30T19:14:22.895Z,14.00
2018-04-30T19:16:51.282Z,13.90
2018-04-30T19:19:18.953Z,13.90
2018-04-30T19:21:46.579Z,13.90
2018-04-30T19:24:14.215Z,13.90
2018-04-30T19:26:41.892Z,13.90
2018-04-30T19:29:09.570Z,13.90
2018-04-30T19:31:37.940Z,13.80
2018-04-30T19:34:05.602Z,13.80
2018-04-30T19:36:33.976Z,13.80
2018-04-30T19:39:01.622Z,13.80
2018-04-30T19:41:29.255Z,13.80
2018-04-30T19:43:57.031Z,13.80
2018-04-30T19:46:24.691Z,13.80
2018-04-30T19:48:52.307Z,13.70
2018-04-30T19:51:20.052Z,13.70
2018-04-30T19:53:47.725Z,13.60
2018-04-30T19:56:16.468Z,13.60
2018-04-30T19:58:44.183Z,13.60
2018-04-30T20:01:11.910Z,13.60
2018-04-30T20:03:40.000Z,13.60
2018-04-30T20:06:08.155Z,13.60
2018-04-30T20:08:36.148Z,13.60
2018-04-30T20:11:03.862Z,13.60
2018-04-30T20:13:32.097Z,13.50
2018-04-30T20:16:00.079Z,13.50
2018-04-30T20:18:27.928Z,13.50
2018-04-30T20:20:56.518Z,13.50
2018-04-30T20:23:24.280Z,13.40
2018-04-30T20:25:52.676Z,13.40
2018-04-30T20:28:21.224Z,13.40
2018-04-30T20:30:49.911Z,13.40
2018-04-30T20:33:18.933Z,13.40
2018-04-30T20:35:47.458Z,13.40
2018-04-30T20:38:15.071Z,13.30
2018-04-30T20:40:42.711Z,13.30
2018-04-30T20:43:10.336Z,13.30
2018-04-30T20:45:38.073Z,13.30
2018-04-30T20:48:05.688Z,13.30
2018-04-30T20:50:33.340Z,13.30
2018-04-30T20:53:00.947Z,13.30
2018-04-30T20:55:28.588Z,13.20
2018-04-30T20:57:56.366Z,13.30
2018-04-30T21:00:24.009Z,13.20
2018-04-30T21:02:51.661Z,13.20
2018-04-30T21:05:19.276Z,13.20
2018-04-30T21:07:47.757Z,13.20
2018-04-30T21:10:16.180Z,13.10
2018-04-30T21:12:43.819Z,13.20
2018-04-30T21:15:11.446Z,13.10
2018-04-30T21:17:39.149Z,13.10
2018-04-30T21:20:06.762Z,13.10
2018-04-30T21:22:34.363Z,13.10
2018-04-30T21:25:02.000Z,13.10
2018-04-30T21:27:30.364Z,13.00
2018-04-30T21:29:58.011Z,13.00
2018-04-30T21:32:25.616Z,13.00
2018-04-30T21:34:53.260Z,13.00
2018-04-30T21:37:21.641Z,13.00
2018-04-30T21:39:50.055Z,13.00
2018-04-30T21:42:17.656Z,12.90
2018-04-30T21:44:45.255Z,13.00
2018-04-30T21:47:12.893Z,13.00
2018-04-30T21:49:40.491Z,13.00
2018-04-30T21:52:08.129Z,13.00
2018-04-30T21:54:36.494Z,13.10
2018-04-30T21:57:04.131Z,13.00
2018-04-30T21:59:31.732Z,13.00
2018-04-30T22:02:00.143Z,13.10
2018-04-30T22:04:27.752Z,13.00
2018-04-30T22:06:55.350Z,13.00
2018-04-30T22:09:23.746Z,13.10
2018-04-30T22:11:51.347Z,13.10
2018-04-30T22:14:18.984Z,13.10
2018-04-30T22:16:46.596Z,13.10
2018-04-30T22:19:14.995Z,13.10
2018-04-30T22:21:42.596Z,13.00
2018-04-30T22:24:10.219Z,13.10
2018-04-30T22:26:37.815Z,13.10
2018-04-30T22:29:05.451Z,13.10
2018-04-30T22:31:33.814Z,13.10
2018-04-30T22:34:01.476Z,13.10
2018-04-30T22:36:29.102Z,13.10
2018-04-30T22:38:56.730Z,13.10
2018-04-30T22:41:24.366Z,13.10
2018-04-30T22:43:52.774Z,13.20
2018-04-30T22:46:20.367Z,13.10
2018-04-30T22:48:47.990Z,13.10
2018-04-30T22:51:15.619Z,13.10
2018-04-30T22:53:43.211Z,13.10
2018-04-30T22:56:10.830Z,13.10
2018-04-30T22:58:38.432Z,13.10
2018-04-30T23:01:06.062Z,13.00
2018-04-30T23:03:33.700Z,13.00
2018-04-30T23:06:01.327Z,13.00
2018-04-30T23:08:28.958Z,13.00
2018-04-30T23:10:56.554Z,13.10
2018-04-30T23:13:24.182Z,13.00
2018-04-30T23:15:52.543Z,13.00
2018-04-30T23:18:20.955Z,13.00
2018-04-30T23:20:48.588Z,13.00
2018-04-30T23:23:16.942Z,13.00
2018-04-30T23:25:44.571Z,13.00
2018-04-30T23:28:12.159Z,13.00
2018-04-30T23:30:39.787Z,13.00
2018-04-30T23:33:07.383Z,13.00
2018-04-30T23:35:35.034Z,13.00
2018-04-30T23:38:02.631Z,13.00
2018-04-30T23:40:30.995Z,13.10
2018-04-30T23:42:58.622Z,13.10
2018-04-30T23:45:26.211Z,13.10
2018-04-30T23:47:53.903Z,13.10
2018-04-30T23:50:22.298Z,13.10
2018-04-30T23:52:49.935Z,13.10
2018-04-30T23:55:18.315Z,13.10
2018-04-30T23:57:45.959Z,13.10
